Raymond, Montana
Current Conditions -  °F | °C
As of 3:15 PM on Wednesday 22 Oct 2014 (Local Time) from KD50 Reporting Station
Overcast Overcast  
Wind Chill: 55°   Ceiling: 2700
Heat Index: 55°   Visibility: 10mi
Dew Point: 46°   Wind: 17mph
Humidity: 72%   Direction: 260°W
Pressure: 29.79"   Gusts: 24mph
Location:  48.88°N, 104.58°W
Report Text: KD50 222115Z AUTO 26015G21KT 10SM BKN027 OVC037 13/08 A2979 RMK AO2
Loading
Personal Weather Stations






























Interactive Weather Map
Tropical Storm Tracking
New forecast layout! Learn more

10-Day Weather Forecast

Advertisements
Track Severe Weather on mobile